createdAt,value
2023-06-01T00:01:47.503Z,86.57
2023-06-01T00:04:16.166Z,85.89
2023-06-01T00:06:44.952Z,84.78
2023-06-01T00:09:12.971Z,83.97
2023-06-01T00:11:41.474Z,83.58
2023-06-01T00:14:09.644Z,83.79
2023-06-01T00:16:38.099Z,83.65
2023-06-01T00:19:06.436Z,83.23
2023-06-01T00:21:36.565Z,83.47
2023-06-01T00:24:05.264Z,83.53
2023-06-01T00:26:33.432Z,83.46
2023-06-01T00:29:01.924Z,83.22
2023-06-01T00:31:30.331Z,82.72
2023-06-01T00:33:58.385Z,82.43
2023-06-01T00:36:26.438Z,82.92
2023-06-01T00:38:54.663Z,83.23
2023-06-01T00:41:22.891Z,83.13
2023-06-01T00:43:51.076Z,82.97
2023-06-01T00:46:19.392Z,82.65
2023-06-01T00:48:47.827Z,82.66
2023-06-01T00:51:16.366Z,82.58
2023-06-01T00:53:44.748Z,82.57
2023-06-01T00:56:13.534Z,83.02
2023-06-01T00:58:42.224Z,83.46
2023-06-01T01:01:20.356Z,83.36
2023-06-01T01:03:51.180Z,83.06
2023-06-01T01:06:57.557Z,82.90
2023-06-01T01:09:50.604Z,82.98
2023-06-01T01:12:30.381Z,83.03
2023-06-01T01:15:27.790Z,82.96
2023-06-01T01:18:03.419Z,82.77
2023-06-01T01:20:44.964Z,82.82
2023-06-01T01:23:35.768Z,82.71
2023-06-01T01:26:23.361Z,82.71
2023-06-01T01:28:55.569Z,82.78
2023-06-01T01:31:25.744Z,83.67
2023-06-01T01:33:56.989Z,83.48
2023-06-01T01:36:25.935Z,83.26
2023-06-01T01:38:54.039Z,83.20
2023-06-01T01:41:27.004Z,83.25
2023-06-01T01:43:56.228Z,83.36
2023-06-01T01:46:28.664Z,83.55
2023-06-01T01:48:56.658Z,85.00
2023-06-01T01:51:44.725Z,84.57
2023-06-01T01:54:14.490Z,84.87
2023-06-01T01:56:43.812Z,84.39
2023-06-01T01:59:13.325Z,83.94
2023-06-01T02:01:43.354Z,83.91
2023-06-01T02:04:13.611Z,83.74
2023-06-01T02:06:42.268Z,83.75
2023-06-01T02:09:10.700Z,83.61
2023-06-01T02:11:39.437Z,83.65
2023-06-01T02:14:07.594Z,83.62
2023-06-01T02:16:35.682Z,83.58
2023-06-01T02:19:04.105Z,83.55
2023-06-01T02:21:32.938Z,83.47
2023-06-01T02:24:05.864Z,83.47
2023-06-01T02:26:34.882Z,83.54
2023-06-01T02:29:06.654Z,83.55
2023-06-01T02:31:38.068Z,83.32
2023-06-01T02:34:06.705Z,83.70
2023-06-01T02:36:35.768Z,83.67
2023-06-01T02:39:04.306Z,83.61
2023-06-01T02:41:33.118Z,83.70
2023-06-01T02:44:01.842Z,83.73
2023-06-01T02:46:29.966Z,83.83
2023-06-01T02:48:58.177Z,83.91
2023-06-01T02:51:26.916Z,84.05
2023-06-01T02:54:03.851Z,84.10
2023-06-01T02:56:32.024Z,84.23
2023-06-01T02:59:00.267Z,84.33
2023-06-01T03:01:36.351Z,84.18
2023-06-01T03:04:06.041Z,84.29
2023-06-01T03:06:38.750Z,84.43
2023-06-01T03:09:26.254Z,84.63
2023-06-01T03:11:57.530Z,84.79
2023-06-01T03:14:25.935Z,85.02
2023-06-01T03:16:54.038Z,85.01
2023-06-01T03:19:23.443Z,85.06
2023-06-01T03:21:55.952Z,85.00
2023-06-01T03:24:29.000Z,85.02
2023-06-01T03:26:59.959Z,85.06
2023-06-01T03:29:29.432Z,85.18
2023-06-01T03:31:57.586Z,85.47
2023-06-01T03:34:26.173Z,85.64
2023-06-01T03:36:54.779Z,85.84
2023-06-01T03:39:23.096Z,86.12
2023-06-01T03:41:51.273Z,86.20
2023-06-01T03:44:19.639Z,86.49
2023-06-01T03:46:47.784Z,86.82
2023-06-01T03:49:16.429Z,87.08
2023-06-01T03:51:44.670Z,87.12
2023-06-01T03:54:13.705Z,87.47
2023-06-01T03:56:42.503Z,87.56
2023-06-01T03:59:11.486Z,87.56
2023-06-01T04:01:43.992Z,87.51
2023-06-01T04:04:14.411Z,87.53
2023-06-01T04:06:46.476Z,87.57
2023-06-01T04:09:16.131Z,87.49
2023-06-01T04:11:44.972Z,87.43
2023-06-01T04:14:14.216Z,87.01
2023-06-01T04:16:43.592Z,86.77
2023-06-01T04:19:11.670Z,86.70
2023-06-01T04:21:41.526Z,86.78
2023-06-01T04:24:10.715Z,86.40
2023-06-01T04:26:38.852Z,86.38
2023-06-01T04:29:07.091Z,86.86
2023-06-01T04:31:35.959Z,86.35
2023-06-01T04:34:03.895Z,85.68
2023-06-01T04:36:38.242Z,85.38
2023-06-01T04:39:09.854Z,85.06
2023-06-01T04:41:39.729Z,84.98
2023-06-01T04:44:08.379Z,84.22
2023-06-01T04:46:40.651Z,84.11
2023-06-01T04:49:13.360Z,82.29
2023-06-01T04:51:42.342Z,79.67
2023-06-01T04:54:10.694Z,75.66
2023-06-01T04:56:39.143Z,72.45
2023-06-01T04:59:07.880Z,69.72
2023-06-01T05:01:36.094Z,63.36
2023-06-01T05:04:04.499Z,59.42
2023-06-01T05:06:33.631Z,58.29
2023-06-01T05:09:01.798Z,57.64
2023-06-01T05:11:30.195Z,59.42
2023-06-01T05:14:02.592Z,59.65
2023-06-01T05:16:32.918Z,59.30
2023-06-01T05:19:00.955Z,59.87
2023-06-01T05:21:29.188Z,59.94
2023-06-01T05:23:57.372Z,60.03
2023-06-01T05:26:25.337Z,61.64
2023-06-01T05:28:54.070Z,61.28
2023-06-01T05:31:22.901Z,60.00
2023-06-01T05:33:58.095Z,60.98
2023-06-01T05:36:28.525Z,61.82
2023-06-01T05:38:58.338Z,62.61
2023-06-01T05:41:27.224Z,62.99
2023-06-01T05:43:55.778Z,62.19
2023-06-01T05:46:25.862Z,61.90
2023-06-01T05:48:56.718Z,63.01
2023-06-01T05:51:25.190Z,64.16
2023-06-01T05:53:53.726Z,63.99
2023-06-01T05:56:21.798Z,62.95
2023-06-01T05:58:54.816Z,62.34
2023-06-01T06:01:23.431Z,61.94
2023-06-01T06:03:52.336Z,62.57
2023-06-01T06:06:23.845Z,62.83
2023-06-01T06:08:53.426Z,61.19
2023-06-01T06:11:23.068Z,61.55
2023-06-01T06:13:51.700Z,62.18
2023-06-01T06:16:19.768Z,60.80
2023-06-01T06:18:47.970Z,61.95
2023-06-01T06:21:17.593Z,62.23
2023-06-01T06:23:47.426Z,61.33
2023-06-01T06:26:15.579Z,59.14
2023-06-01T06:28:43.475Z,60.08
2023-06-01T06:31:11.455Z,60.67
2023-06-01T06:33:39.503Z,60.65
2023-06-01T06:36:07.548Z,61.01
2023-06-01T06:38:35.736Z,61.13
2023-06-01T06:41:04.978Z,60.41
2023-06-01T06:43:34.823Z,59.71
2023-06-01T06:46:03.712Z,59.63
2023-06-01T06:48:31.762Z,57.84
2023-06-01T06:50:59.881Z,57.36
2023-06-01T06:53:28.160Z,57.94
2023-06-01T06:55:56.166Z,57.56
2023-06-01T06:58:24.815Z,57.16
2023-06-01T07:00:52.803Z,55.48
2023-06-01T07:03:21.611Z,57.03
2023-06-01T07:05:50.093Z,57.08
2023-06-01T07:08:18.173Z,57.10
2023-06-01T07:10:46.636Z,55.39
2023-06-01T07:13:14.735Z,56.55
2023-06-01T07:15:43.425Z,54.40
2023-06-01T07:18:11.422Z,54.82
2023-06-01T07:20:39.717Z,53.86
2023-06-01T07:23:08.080Z,53.13
2023-06-01T07:25:36.161Z,53.55
2023-06-01T07:28:08.380Z,52.95
2023-06-01T07:30:36.587Z,54.39
2023-06-01T07:33:04.739Z,54.95
2023-06-01T07:35:34.672Z,53.89
2023-06-01T07:38:04.331Z,54.09
2023-06-01T07:40:32.895Z,53.50
2023-06-01T07:43:00.846Z,52.89
2023-06-01T07:45:29.137Z,54.24
2023-06-01T07:47:57.240Z,53.82
2023-06-01T07:50:29.351Z,52.00
2023-06-01T07:52:58.359Z,52.33
2023-06-01T07:55:26.436Z,51.28
2023-06-01T07:57:54.440Z,51.06
2023-06-01T08:00:23.635Z,50.10
2023-06-01T08:02:52.551Z,49.44
2023-06-01T08:05:21.039Z,50.05
2023-06-01T08:07:50.169Z,50.00
2023-06-01T08:10:18.172Z,48.15
2023-06-01T08:12:46.091Z,47.98
2023-06-01T08:15:14.098Z,47.58
2023-06-01T08:17:42.043Z,47.74
2023-06-01T08:20:12.293Z,45.56
2023-06-01T08:22:41.743Z,45.83
2023-06-01T08:25:10.941Z,45.33
2023-06-01T08:27:38.859Z,45.41
2023-06-01T08:30:08.352Z,45.20
2023-06-01T08:32:36.512Z,44.97
2023-06-01T08:35:06.432Z,44.96
2023-06-01T08:37:36.150Z,44.23
2023-06-01T08:40:07.995Z,44.35
2023-06-01T08:42:45.985Z,43.36
2023-06-01T08:45:14.694Z,41.06
2023-06-01T08:47:43.407Z,39.44
2023-06-01T08:50:12.429Z,39.90
2023-06-01T08:52:44.357Z,40.64
2023-06-01T08:55:12.564Z,40.47
2023-06-01T08:57:43.767Z,40.14
2023-06-01T09:00:15.746Z,39.02
2023-06-01T09:02:44.786Z,39.46
2023-06-01T09:05:14.030Z,38.52
2023-06-01T09:07:42.304Z,38.71
2023-06-01T09:10:10.720Z,40.00
2023-06-01T09:12:42.119Z,40.31
2023-06-01T09:15:18.234Z,38.55
2023-06-01T09:17:48.814Z,38.22
2023-06-01T09:20:24.630Z,38.11
2023-06-01T09:22:54.194Z,38.21
2023-06-01T09:25:30.248Z,38.12
2023-06-01T09:28:00.728Z,37.95
2023-06-01T09:30:43.523Z,38.05
2023-06-01T09:33:14.412Z,38.72
2023-06-01T09:35:47.830Z,38.30
2023-06-01T09:38:27.381Z,37.34
2023-06-01T09:40:59.786Z,37.27
2023-06-01T09:43:28.348Z,38.90
2023-06-01T09:46:11.071Z,38.79
2023-06-01T09:48:39.211Z,39.62
2023-06-01T09:51:33.202Z,38.40
2023-06-01T09:54:02.124Z,38.74
2023-06-01T09:56:43.792Z,39.03
2023-06-01T09:59:12.191Z,39.00
2023-06-01T10:01:41.044Z,38.71
2023-06-01T10:04:12.026Z,38.54
2023-06-01T10:06:41.539Z,38.20
2023-06-01T10:09:17.048Z,38.15
2023-06-01T10:11:45.047Z,37.86
2023-06-01T10:14:13.844Z,36.92
2023-06-01T10:16:42.805Z,36.93
2023-06-01T10:19:12.141Z,37.31
2023-06-01T10:21:41.288Z,38.08
2023-06-01T10:24:10.803Z,39.07
2023-06-01T10:27:16.864Z,39.06
2023-06-01T10:29:45.033Z,39.07
2023-06-01T10:32:33.363Z,38.98
2023-06-01T10:35:01.279Z,38.99
2023-06-01T10:37:29.595Z,38.54
2023-06-01T10:40:19.753Z,38.27
2023-06-01T10:42:48.922Z,38.17
2023-06-01T10:45:35.514Z,37.47
2023-06-01T10:48:05.079Z,37.07
2023-06-01T10:50:35.080Z,36.94
2023-06-01T10:53:31.667Z,36.52
2023-06-01T10:56:18.063Z,35.60
2023-06-01T10:58:46.339Z,35.00
2023-06-01T11:01:23.774Z,36.11
2023-06-01T11:03:52.117Z,35.47
2023-06-01T11:06:29.137Z,35.49
2023-06-01T11:09:00.998Z,35.62
2023-06-01T11:11:58.600Z,35.03
2023-06-01T11:14:30.659Z,33.31
2023-06-01T11:17:28.258Z,34.50
2023-06-01T11:20:02.665Z,35.71
2023-06-01T11:22:36.759Z,34.91
2023-06-01T11:25:09.552Z,33.40
2023-06-01T11:27:38.074Z,33.84
2023-06-01T11:30:06.678Z,34.12
2023-06-01T11:32:41.408Z,33.82
2023-06-01T11:35:20.178Z,33.26
2023-06-01T11:37:53.141Z,33.76
2023-06-01T11:40:22.079Z,33.60
2023-06-01T11:42:49.973Z,30.94
2023-06-01T11:45:18.980Z,33.09
2023-06-01T11:47:47.220Z,33.10
2023-06-01T11:50:27.885Z,32.76
2023-06-01T11:52:56.800Z,32.95
2023-06-01T11:55:24.728Z,33.13
2023-06-01T11:57:52.787Z,32.21
2023-06-01T12:00:21.005Z,32.91
2023-06-01T12:02:49.864Z,32.97
2023-06-01T12:05:18.137Z,31.95
2023-06-01T12:07:49.921Z,32.47
2023-06-01T12:10:20.041Z,32.29
2023-06-01T12:12:48.948Z,33.33
2023-06-01T12:15:19.402Z,33.62
2023-06-01T12:20:37.620Z,33.98
2023-06-01T12:23:17.362Z,35.62
2023-06-01T12:25:59.342Z,36.31
2023-06-01T12:28:30.529Z,38.51
2023-06-01T12:31:15.352Z,37.66
2023-06-01T12:33:46.333Z,36.93
2023-06-01T12:36:35.334Z,36.33
2023-06-01T12:39:06.305Z,36.32
2023-06-01T12:41:34.535Z,32.60
2023-06-01T12:44:02.427Z,33.38
2023-06-01T12:46:36.628Z,33.50
2023-06-01T12:49:18.969Z,33.53
2023-06-01T12:51:47.957Z,34.47
2023-06-01T12:54:16.372Z,33.88
2023-06-01T12:56:45.439Z,33.72
2023-06-01T12:59:13.626Z,32.99
2023-06-01T13:01:41.993Z,32.79
2023-06-01T13:04:10.888Z,33.63
2023-06-01T13:06:40.535Z,32.95
2023-06-01T13:09:09.584Z,32.63
2023-06-01T13:11:37.839Z,31.48
2023-06-01T13:14:05.849Z,31.59
2023-06-01T13:16:34.072Z,32.69
2023-06-01T13:19:02.291Z,32.70
2023-06-01T13:21:30.255Z,33.46
2023-06-01T13:23:58.426Z,32.40
2023-06-01T13:26:27.744Z,31.47
2023-06-01T13:28:56.016Z,31.62
2023-06-01T13:31:24.625Z,31.45
2023-06-01T13:33:52.685Z,31.06
2023-06-01T13:36:20.674Z,32.21
2023-06-01T13:38:48.526Z,31.58
2023-06-01T13:41:16.512Z,31.32
2023-06-01T13:43:44.559Z,31.96
2023-06-01T13:46:12.982Z,33.49
2023-06-01T13:48:40.997Z,32.31
2023-06-01T13:51:10.311Z,31.78
2023-06-01T13:53:38.426Z,31.58
2023-06-01T13:56:06.884Z,31.24
2023-06-01T13:58:35.403Z,31.19
2023-06-01T14:01:04.027Z,31.06
2023-06-01T14:03:32.389Z,31.44
2023-06-01T14:06:00.584Z,33.20
2023-06-01T14:08:28.673Z,35.61
2023-06-01T14:10:56.535Z,37.37
2023-06-01T14:13:24.397Z,38.27
2023-06-01T14:15:52.440Z,38.37
2023-06-01T14:18:20.426Z,37.99
2023-06-01T14:20:49.109Z,38.65
2023-06-01T14:23:17.121Z,40.80
2023-06-01T14:25:46.311Z,42.92
2023-06-01T14:28:14.573Z,42.57
2023-06-01T14:30:42.752Z,42.80
2023-06-01T14:33:11.576Z,44.45
2023-06-01T14:35:39.813Z,45.13
2023-06-01T14:38:08.089Z,46.30
2023-06-01T14:40:36.058Z,47.82
2023-06-01T14:43:04.110Z,47.36
2023-06-01T14:45:32.014Z,46.84
2023-06-01T14:48:00.844Z,47.71
2023-06-01T14:50:29.164Z,47.53
2023-06-01T14:53:00.464Z,48.26
2023-06-01T14:55:28.904Z,47.44
2023-06-01T14:57:57.307Z,48.16
2023-06-01T15:00:25.407Z,48.48
2023-06-01T15:02:53.378Z,47.66
2023-06-01T15:05:21.684Z,47.26
2023-06-01T15:07:49.652Z,46.67
2023-06-01T15:10:18.394Z,46.71
2023-06-01T15:12:46.387Z,47.61
2023-06-01T15:15:14.717Z,47.72
2023-06-01T15:17:42.893Z,47.88
2023-06-01T15:20:11.902Z,48.02
2023-06-01T15:22:39.861Z,48.17
2023-06-01T15:25:08.799Z,47.94
2023-06-01T15:27:37.210Z,47.91
2023-06-01T15:30:06.130Z,48.20
2023-06-01T15:32:34.134Z,47.89
2023-06-01T15:35:03.792Z,48.49
2023-06-01T15:37:32.118Z,49.96
2023-06-01T15:40:00.409Z,51.96
2023-06-01T15:42:28.841Z,51.48
2023-06-01T15:44:58.017Z,51.85
2023-06-01T15:47:27.368Z,51.48
2023-06-01T15:49:55.280Z,51.09
2023-06-01T15:52:23.158Z,52.19
2023-06-01T15:54:51.104Z,52.74
2023-06-01T15:57:19.012Z,53.41
2023-06-01T15:59:46.938Z,54.33
2023-06-01T16:02:15.099Z,54.15
2023-06-01T16:04:43.012Z,54.14
2023-06-01T16:07:10.955Z,53.34
2023-06-01T16:09:39.090Z,53.51
2023-06-01T16:12:07.499Z,53.40
2023-06-01T16:14:35.728Z,53.36
2023-06-01T16:17:04.241Z,53.61
2023-06-01T16:19:32.284Z,53.29
2023-06-01T16:22:00.715Z,52.51
2023-06-01T16:24:29.048Z,52.23
2023-06-01T16:26:56.887Z,51.72
2023-06-01T16:29:25.316Z,50.99
2023-06-01T16:31:53.232Z,50.94
2023-06-01T16:34:21.206Z,50.87
2023-06-01T16:36:49.165Z,51.68
2023-06-01T16:39:16.996Z,52.81
2023-06-01T16:41:45.005Z,52.58
2023-06-01T16:44:14.382Z,53.19
2023-06-01T16:46:42.742Z,52.37
2023-06-01T16:49:11.223Z,52.28
2023-06-01T16:51:39.416Z,51.61
2023-06-01T16:54:07.382Z,51.30
2023-06-01T16:56:35.750Z,51.89
2023-06-01T16:59:03.591Z,52.10
2023-06-01T17:01:34.420Z,51.78
2023-06-01T17:04:03.132Z,51.03
2023-06-01T17:06:32.373Z,52.03
2023-06-01T17:09:01.566Z,52.86
2023-06-01T17:11:29.557Z,53.22
2023-06-01T17:13:57.411Z,54.46
2023-06-01T17:16:25.810Z,54.81
2023-06-01T17:18:53.871Z,54.83
2023-06-01T17:21:21.902Z,54.40
2023-06-01T17:23:49.954Z,53.45
2023-06-01T17:26:17.956Z,53.07
2023-06-01T17:28:46.115Z,54.61
2023-06-01T17:31:14.093Z,54.64
2023-06-01T17:33:42.121Z,53.91
2023-06-01T17:36:10.880Z,53.93
2023-06-01T17:38:38.944Z,54.80
2023-06-01T17:41:07.640Z,54.01
2023-06-01T17:43:35.597Z,53.71
2023-06-01T17:46:05.501Z,53.65
2023-06-01T17:48:34.095Z,53.79
2023-06-01T17:51:02.089Z,53.81
2023-06-01T17:53:40.998Z,53.79
2023-06-01T17:56:10.106Z,53.84
2023-06-01T17:58:38.128Z,53.76
2023-06-01T18:01:07.217Z,53.72
2023-06-01T18:03:35.120Z,54.00
2023-06-01T18:06:04.007Z,55.08
2023-06-01T18:08:33.438Z,56.55
2023-06-01T18:11:07.649Z,57.30
2023-06-01T18:13:36.947Z,57.88
2023-06-01T18:16:07.620Z,57.98
2023-06-01T18:18:37.718Z,58.29
2023-06-01T18:21:06.276Z,58.73
2023-06-01T18:23:34.717Z,59.28
2023-06-01T18:26:03.219Z,60.07
2023-06-01T18:28:31.414Z,60.16
2023-06-01T18:30:59.668Z,60.71
2023-06-01T18:33:27.974Z,61.53
2023-06-01T18:35:55.888Z,61.61
2023-06-01T18:38:23.900Z,61.97
2023-06-01T18:40:51.874Z,62.35
2023-06-01T18:43:19.995Z,63.41
2023-06-01T18:45:47.976Z,63.52
2023-06-01T18:48:16.277Z,63.76
2023-06-01T18:50:44.308Z,63.56
2023-06-01T18:53:14.152Z,63.67
2023-06-01T18:55:42.467Z,64.07
2023-06-01T18:58:10.609Z,64.78
2023-06-01T19:00:38.644Z,64.94
2023-06-01T19:03:07.016Z,65.57
2023-06-01T19:05:40.320Z,66.04
2023-06-01T19:08:09.677Z,65.75
2023-06-01T19:11:00.354Z,66.36
2023-06-01T19:13:43.299Z,66.48
2023-06-01T19:16:14.636Z,66.27
2023-06-01T19:18:51.050Z,66.86
2023-06-01T19:21:22.588Z,67.33
2023-06-01T19:23:56.531Z,67.55
2023-06-01T19:26:28.353Z,67.63
2023-06-01T19:29:02.208Z,67.56
2023-06-01T19:31:34.053Z,67.94
2023-06-01T19:34:07.496Z,68.54
2023-06-01T19:36:58.026Z,68.84
2023-06-01T19:39:32.566Z,69.13
2023-06-01T19:42:04.448Z,69.43
2023-06-01T19:44:32.493Z,69.61
2023-06-01T19:47:01.004Z,69.87
2023-06-01T19:49:36.232Z,69.86
2023-06-01T19:52:06.870Z,70.10
2023-06-01T19:54:35.375Z,70.27
2023-06-01T19:57:04.340Z,70.37
2023-06-01T19:59:32.426Z,70.30
2023-06-01T20:02:02.796Z,70.42
2023-06-01T20:04:34.631Z,70.37
2023-06-01T20:07:02.926Z,72.37
2023-06-01T20:09:31.072Z,72.60
2023-06-01T20:11:59.125Z,71.63
2023-06-01T20:14:33.562Z,71.67
2023-06-01T20:17:04.423Z,72.57
2023-06-01T20:19:32.583Z,73.61
2023-06-01T20:22:01.502Z,72.99
2023-06-01T20:24:30.393Z,72.69
2023-06-01T20:27:04.264Z,72.29
2023-06-01T20:29:36.196Z,72.57
2023-06-01T20:32:05.042Z,72.82
2023-06-01T20:34:33.617Z,72.43
2023-06-01T20:37:04.274Z,72.72
2023-06-01T20:39:32.283Z,73.76
2023-06-01T20:42:01.189Z,73.56
2023-06-01T20:44:29.716Z,73.38
2023-06-01T20:46:59.876Z,73.43
2023-06-01T20:49:33.589Z,73.48
2023-06-01T20:52:01.701Z,73.36
2023-06-01T20:54:29.719Z,73.49
2023-06-01T20:56:58.791Z,73.70
2023-06-01T20:59:29.100Z,73.64
2023-06-01T21:02:02.950Z,73.67
2023-06-01T21:04:35.136Z,73.80
2023-06-01T21:07:05.638Z,74.27
2023-06-01T21:09:33.902Z,74.29
2023-06-01T21:12:03.275Z,74.34
2023-06-01T21:14:32.819Z,74.52
2023-06-01T21:17:01.387Z,74.50
2023-06-01T21:19:29.617Z,74.77
2023-06-01T21:21:58.064Z,74.98
2023-06-01T21:24:26.148Z,75.04
2023-06-01T21:26:54.261Z,75.06
2023-06-01T21:29:22.475Z,74.92
2023-06-01T21:31:50.802Z,74.88
2023-06-01T21:34:18.914Z,75.26
2023-06-01T21:36:47.302Z,75.30
2023-06-01T21:39:15.552Z,75.25
2023-06-01T21:41:43.579Z,75.17
2023-06-01T21:44:12.623Z,74.97
2023-06-01T21:46:41.102Z,75.32
2023-06-01T21:49:09.269Z,75.54
2023-06-01T21:51:37.325Z,75.61
2023-06-01T21:54:05.530Z,75.44
2023-06-01T21:56:33.599Z,75.75
2023-06-01T21:59:02.114Z,76.02
2023-06-01T22:01:30.271Z,76.01
2023-06-01T22:03:58.513Z,76.14
2023-06-01T22:06:26.723Z,75.71
2023-06-01T22:08:54.831Z,75.91
2023-06-01T22:11:22.991Z,76.18
2023-06-01T22:13:51.350Z,76.29
2023-06-01T22:16:19.296Z,75.98
2023-06-01T22:18:47.445Z,76.35
2023-06-01T22:21:15.539Z,76.44
2023-06-01T22:23:43.547Z,76.52
2023-06-01T22:26:11.923Z,76.85
2023-06-01T22:28:40.123Z,77.11
2023-06-01T22:31:08.528Z,77.00
2023-06-01T22:33:36.585Z,76.74
2023-06-01T22:36:05.373Z,77.16
2023-06-01T22:38:33.677Z,77.41
2023-06-01T22:41:01.944Z,77.59
2023-06-01T22:43:30.175Z,77.67
2023-06-01T22:45:58.732Z,77.94
2023-06-01T22:48:26.856Z,78.18
2023-06-01T22:50:55.242Z,78.17
2023-06-01T22:53:26.021Z,78.53
2023-06-01T22:55:53.985Z,78.71
2023-06-01T22:58:22.092Z,78.65
2023-06-01T23:00:51.577Z,78.52
2023-06-01T23:03:19.737Z,78.14
2023-06-01T23:05:50.826Z,78.30
2023-06-01T23:08:23.081Z,78.72
2023-06-01T23:10:51.752Z,79.02
2023-06-01T23:13:24.573Z,79.06
2023-06-01T23:15:56.118Z,79.11
2023-06-01T23:18:25.156Z,79.19
2023-06-01T23:20:56.480Z,79.12
2023-06-01T23:23:24.449Z,79.02
2023-06-01T23:25:54.625Z,79.05
2023-06-01T23:28:22.511Z,80.83
2023-06-01T23:30:50.509Z,81.65
2023-06-01T23:33:19.531Z,80.81
2023-06-01T23:35:47.695Z,80.37
2023-06-01T23:38:15.953Z,80.19
2023-06-01T23:40:43.932Z,80.13
2023-06-01T23:43:12.313Z,79.75
2023-06-01T23:45:42.204Z,79.78
2023-06-01T23:48:11.373Z,79.97
2023-06-01T23:50:39.334Z,79.74
2023-06-01T23:53:07.318Z,79.69
2023-06-01T23:55:35.303Z,79.54
2023-06-01T23:58:03.568Z,79.28
